Highland, Wisconsin
Current Conditions -  °F | °C
As of 7:15 PM on Friday 28 Nov 2014 (Local Time) from KMRJ Reporting Station
Clear Clear  
Wind Chill: 24°   Ceiling: Unl
Heat Index: 30°   Visibility: 7mi
Dew Point: 27°   Wind: 6mph
Humidity: 86%   Direction: 130°SE
Pressure: 29.85"   Gusts: NA
Location:  43.05°N, 90.38°W
Report Text: KMRJ 290115Z AUTO 13005KT 7SM CLR M01/M03 A2985 RMK AO2
Loading
Personal Weather Stations






























Interactive Weather Map New forecast layout! Learn more

10-Day Weather Forecast

Advertisements
Track Severe Weather on mobile